createdAt,value
2019-05-26T00:01:17.816Z,20.90
2019-05-26T00:03:50.013Z,20.90
2019-05-26T00:06:22.230Z,20.90
2019-05-26T00:08:54.424Z,20.80
2019-05-26T00:11:26.642Z,20.80
2019-05-26T00:14:00.468Z,20.80
2019-05-26T00:16:32.687Z,20.70
2019-05-26T00:19:04.954Z,20.70
2019-05-26T00:21:37.174Z,20.70
2019-05-26T00:24:09.369Z,20.60
2019-05-26T00:26:41.580Z,20.60
2019-05-26T00:29:13.918Z,20.60
2019-05-26T00:31:46.205Z,20.60
2019-05-26T00:34:18.472Z,20.60
2019-05-26T00:36:50.768Z,20.50
2019-05-26T00:39:22.966Z,20.50
2019-05-26T00:41:55.280Z,20.50
2019-05-26T00:44:27.486Z,20.50
2019-05-26T00:46:59.774Z,20.50
2019-05-26T00:49:31.982Z,20.40
2019-05-26T00:52:04.217Z,20.40
2019-05-26T00:54:36.847Z,20.30
2019-05-26T00:57:09.177Z,20.30
2019-05-26T00:59:41.363Z,20.30
2019-05-26T01:02:13.667Z,20.30
2019-05-26T01:04:45.866Z,20.30
2019-05-26T01:07:18.084Z,20.30
2019-05-26T01:09:50.219Z,20.20
2019-05-26T01:12:22.521Z,20.20
2019-05-26T01:14:55.788Z,20.10
2019-05-26T01:17:28.009Z,20.10
2019-05-26T01:20:00.133Z,20.10
2019-05-26T01:22:32.345Z,20.10
2019-05-26T01:25:04.825Z,20.10
2019-05-26T01:27:37.364Z,20.10
2019-05-26T01:30:09.635Z,20.00
2019-05-26T01:32:41.796Z,20.00
2019-05-26T01:35:14.049Z,20.00
2019-05-26T01:37:46.272Z,20.00
2019-05-26T01:40:23.414Z,19.90
2019-05-26T01:42:55.791Z,19.90
2019-05-26T01:45:27.994Z,19.90
2019-05-26T01:48:00.146Z,19.80
2019-05-26T01:50:32.411Z,19.80
2019-05-26T01:53:05.086Z,19.80
2019-05-26T01:55:37.286Z,19.80
2019-05-26T01:58:09.516Z,19.70
2019-05-26T02:00:42.195Z,19.70
2019-05-26T02:03:14.411Z,19.70
2019-05-26T02:05:46.605Z,19.60
2019-05-26T02:08:18.849Z,19.60
2019-05-26T02:10:52.048Z,19.60
2019-05-26T02:13:24.287Z,19.60
2019-05-26T02:15:56.482Z,19.50
2019-05-26T02:18:28.764Z,19.50
2019-05-26T02:21:01.161Z,19.50
2019-05-26T02:23:33.504Z,19.50
2019-05-26T02:26:05.784Z,19.50
2019-05-26T02:28:38.964Z,19.50
2019-05-26T02:31:11.138Z,19.40
2019-05-26T02:33:43.438Z,19.40
2019-05-26T02:36:15.706Z,19.40
2019-05-26T02:39:01.056Z,19.40
2019-05-26T02:41:21.874Z,19.30
2019-05-26T02:43:54.087Z,19.30
2019-05-26T02:46:26.287Z,19.30
2019-05-26T02:48:58.558Z,19.30
2019-05-26T02:51:30.755Z,19.30
2019-05-26T02:54:03.057Z,19.20
2019-05-26T02:56:35.316Z,19.20
2019-05-26T02:59:07.545Z,19.20
2019-05-26T03:01:58.375Z,19.20
2019-05-26T03:04:13.878Z,19.10
2019-05-26T03:06:46.333Z,19.10
2019-05-26T03:09:23.277Z,19.10
2019-05-26T03:11:52.802Z,19.10
2019-05-26T03:14:25.609Z,19.00
2019-05-26T03:16:58.033Z,19.00
2019-05-26T03:19:30.185Z,19.00
2019-05-26T03:22:02.450Z,19.00
2019-05-26T03:24:34.838Z,19.00
2019-05-26T03:27:07.042Z,19.00
2019-05-26T03:29:39.253Z,18.90
2019-05-26T03:32:11.446Z,18.90
2019-05-26T03:34:43.748Z,18.90
2019-05-26T03:37:15.922Z,18.90
2019-05-26T03:39:48.156Z,18.90
2019-05-26T03:42:20.256Z,18.80
2019-05-26T03:44:52.496Z,18.80
2019-05-26T03:47:24.694Z,18.80
2019-05-26T03:49:56.985Z,18.80
2019-05-26T03:52:29.268Z,18.80
2019-05-26T03:55:01.483Z,18.70
2019-05-26T03:57:33.671Z,18.70
2019-05-26T04:00:06.741Z,18.70
2019-05-26T04:02:38.977Z,18.70
2019-05-26T04:05:11.343Z,18.60
2019-05-26T04:07:43.591Z,18.60
2019-05-26T04:10:15.817Z,18.60
2019-05-26T04:12:48.032Z,18.60
2019-05-26T04:15:20.221Z,18.60
2019-05-26T04:17:52.337Z,18.60
2019-05-26T04:20:24.547Z,18.60
2019-05-26T04:22:56.825Z,18.60
2019-05-26T04:25:29.673Z,18.50
2019-05-26T04:28:01.980Z,18.50
2019-05-26T04:30:34.333Z,18.50
2019-05-26T04:33:06.538Z,18.50
2019-05-26T04:35:38.818Z,18.50
2019-05-26T04:38:11.087Z,18.50
2019-05-26T04:40:43.887Z,18.50
2019-05-26T04:43:16.343Z,18.50
2019-05-26T04:45:48.639Z,18.50
2019-05-26T04:48:20.909Z,18.40
2019-05-26T04:50:53.220Z,18.40
2019-05-26T04:53:25.404Z,18.40
2019-05-26T04:55:57.739Z,18.40
2019-05-26T04:58:30.013Z,18.40
2019-05-26T05:01:02.229Z,18.40
2019-05-26T05:03:34.433Z,18.40
2019-05-26T05:06:06.740Z,18.30
2019-05-26T05:08:38.946Z,18.30
2019-05-26T05:11:11.169Z,18.30
2019-05-26T05:13:43.445Z,18.30
2019-05-26T05:16:15.747Z,18.30
2019-05-26T05:18:48.172Z,18.30
2019-05-26T05:21:20.384Z,18.30
2019-05-26T05:23:52.733Z,18.30
2019-05-26T05:26:25.041Z,18.30
2019-05-26T05:28:57.296Z,18.30
2019-05-26T05:31:29.593Z,18.30
2019-05-26T05:34:01.846Z,18.30
2019-05-26T05:36:34.624Z,18.30
2019-05-26T05:39:08.825Z,18.30
2019-05-26T05:41:41.154Z,18.30
2019-05-26T05:44:13.428Z,18.30
2019-05-26T05:46:45.741Z,18.30
2019-05-26T05:49:18.012Z,18.40
2019-05-26T05:51:50.241Z,18.40
2019-05-26T05:54:23.401Z,18.40
2019-05-26T05:56:55.940Z,18.40
2019-05-26T05:59:28.129Z,18.40
2019-05-26T06:02:00.360Z,18.40
2019-05-26T06:04:32.576Z,18.40
2019-05-26T06:07:04.812Z,18.50
2019-05-26T06:09:36.986Z,18.50
2019-05-26T06:12:09.291Z,18.50
2019-05-26T06:14:41.823Z,18.60
2019-05-26T06:17:14.045Z,18.60
2019-05-26T06:19:46.330Z,18.60
2019-05-26T06:22:18.547Z,18.70
2019-05-26T06:24:50.817Z,18.70
2019-05-26T06:27:23.116Z,18.70
2019-05-26T06:29:58.893Z,18.70
2019-05-26T06:32:29.246Z,18.80
2019-05-26T06:35:01.519Z,18.90
2019-05-26T06:37:33.759Z,18.90
2019-05-26T06:40:07.552Z,19.00
2019-05-26T06:42:39.865Z,19.00
2019-05-26T06:45:12.151Z,19.10
2019-05-26T06:47:44.529Z,19.20
2019-05-26T06:50:16.915Z,19.20
2019-05-26T06:52:49.124Z,19.30
2019-05-26T06:55:21.326Z,19.30
2019-05-26T06:57:53.736Z,19.40
2019-05-26T07:00:25.987Z,19.50
2019-05-26T07:02:58.278Z,19.60
2019-05-26T07:05:30.481Z,19.70
2019-05-26T07:08:02.926Z,19.70
2019-05-26T07:10:35.134Z,19.80
2019-05-26T07:13:07.429Z,19.90
2019-05-26T07:15:39.656Z,20.00
2019-05-26T07:18:11.868Z,20.10
2019-05-26T07:20:44.123Z,20.20
2019-05-26T07:23:16.351Z,20.20
2019-05-26T07:25:48.553Z,20.30
2019-05-26T07:28:20.787Z,20.40
2019-05-26T07:30:53.062Z,20.50
2019-05-26T07:33:25.313Z,20.60
2019-05-26T07:35:57.579Z,20.70
2019-05-26T07:38:29.804Z,20.80
2019-05-26T07:41:02.130Z,20.80
2019-05-26T07:43:34.367Z,20.90
2019-05-26T07:46:06.735Z,21.00
2019-05-26T07:48:38.948Z,21.10
2019-05-26T07:51:11.147Z,21.10
2019-05-26T07:53:43.450Z,21.30
2019-05-26T07:56:15.719Z,21.30
2019-05-26T07:58:48.264Z,21.40
2019-05-26T08:01:24.199Z,21.50
2019-05-26T08:03:54.615Z,21.60
2019-05-26T08:06:26.952Z,21.70
2019-05-26T08:08:59.259Z,21.70
2019-05-26T08:11:31.534Z,21.80
2019-05-26T08:14:03.858Z,21.90
2019-05-26T08:16:36.113Z,22.00
2019-05-26T08:19:08.331Z,22.10
2019-05-26T08:21:40.521Z,22.20
2019-05-26T08:24:12.741Z,22.20
2019-05-26T08:26:45.007Z,22.30
2019-05-26T08:29:17.378Z,22.40
2019-05-26T08:31:49.606Z,22.50
2019-05-26T08:34:22.009Z,22.50
2019-05-26T08:36:54.273Z,22.60
2019-05-26T08:39:28.216Z,22.70
2019-05-26T08:42:00.432Z,22.80
2019-05-26T08:44:32.675Z,22.90
2019-05-26T08:47:04.871Z,23.00
2019-05-26T08:49:37.234Z,23.10
2019-05-26T08:52:09.446Z,23.20
2019-05-26T08:54:42.636Z,23.30
2019-05-26T08:57:14.919Z,23.40
2019-05-26T08:59:47.136Z,23.50
2019-05-26T09:02:19.335Z,23.60
2019-05-26T09:04:51.526Z,23.60
2019-05-26T09:07:23.709Z,23.70
2019-05-26T09:09:55.926Z,23.80
2019-05-26T09:12:29.100Z,23.90
2019-05-26T09:15:01.484Z,23.90
2019-05-26T09:17:33.827Z,24.00
2019-05-26T09:20:11.207Z,24.10
2019-05-26T09:22:41.913Z,24.20
2019-05-26T09:25:14.186Z,24.20
2019-05-26T09:27:46.317Z,24.30
2019-05-26T09:30:18.689Z,24.30
2019-05-26T09:32:50.981Z,24.40
2019-05-26T09:35:23.639Z,24.40
2019-05-26T09:37:55.977Z,24.50
2019-05-26T09:40:28.206Z,24.60
2019-05-26T09:43:14.783Z,24.60
2019-05-26T09:45:34.461Z,24.70
2019-05-26T09:48:06.739Z,24.70
2019-05-26T09:50:39.920Z,24.80
2019-05-26T09:53:12.192Z,24.80
2019-05-26T09:55:44.409Z,24.90
2019-05-26T09:58:16.604Z,24.90
2019-05-26T10:00:48.831Z,25.00
2019-05-26T10:03:21.032Z,25.00
2019-05-26T10:05:53.329Z,25.10
2019-05-26T10:08:25.541Z,25.10
2019-05-26T10:10:57.812Z,25.20
2019-05-26T10:13:32.016Z,25.20
2019-05-26T10:16:04.109Z,25.30
2019-05-26T10:18:36.417Z,25.30
2019-05-26T10:21:08.652Z,25.30
2019-05-26T10:23:40.866Z,25.30
2019-05-26T10:26:13.258Z,25.40
2019-05-26T10:28:45.543Z,25.40
2019-05-26T10:31:17.844Z,25.40
2019-05-26T10:33:50.248Z,25.40
2019-05-26T10:36:22.629Z,25.50
2019-05-26T10:38:54.840Z,25.50
2019-05-26T10:41:27.081Z,25.50
2019-05-26T10:43:59.205Z,25.50
2019-05-26T10:46:31.445Z,25.50
2019-05-26T10:49:03.667Z,25.60
2019-05-26T10:51:35.963Z,25.60
2019-05-26T10:54:08.243Z,25.60
2019-05-26T10:56:41.578Z,25.60
2019-05-26T10:59:13.852Z,25.60
2019-05-26T11:02:04.443Z,25.70
2019-05-26T11:04:38.709Z,25.70
2019-05-26T11:07:11.771Z,25.70
2019-05-26T11:09:44.638Z,25.70
2019-05-26T11:12:17.599Z,25.70
2019-05-26T11:14:50.511Z,25.80
2019-05-26T11:17:23.441Z,25.80
2019-05-26T11:19:56.478Z,25.80
2019-05-26T11:22:29.432Z,25.80
2019-05-26T11:25:02.438Z,25.80
2019-05-26T11:27:35.634Z,25.80
2019-05-26T11:30:09.815Z,25.80
2019-05-26T11:32:43.022Z,25.80
2019-05-26T11:35:16.037Z,25.80
2019-05-26T11:37:49.209Z,25.80
2019-05-26T11:40:22.479Z,25.80
2019-05-26T11:42:55.669Z,25.80
2019-05-26T11:45:28.982Z,25.80
2019-05-26T11:48:02.146Z,25.80
2019-05-26T11:50:35.280Z,25.80
2019-05-26T11:53:08.427Z,25.80
2019-05-26T11:55:41.518Z,25.80
2019-05-26T11:58:14.590Z,25.80
2019-05-26T12:00:47.626Z,25.80
2019-05-26T12:03:20.834Z,25.80
2019-05-26T12:05:54.034Z,25.80
2019-05-26T12:08:26.945Z,25.80
2019-05-26T12:11:00.004Z,25.80
2019-05-26T12:13:36.008Z,25.80
2019-05-26T12:16:07.648Z,25.80
2019-05-26T12:18:40.715Z,25.80
2019-05-26T12:21:13.734Z,25.80
2019-05-26T12:23:46.977Z,25.80
2019-05-26T12:26:20.294Z,25.80
2019-05-26T12:28:53.557Z,25.80
2019-05-26T12:31:26.749Z,25.80
2019-05-26T12:33:59.961Z,25.80
2019-05-26T12:36:33.199Z,25.80
2019-05-26T12:39:07.757Z,25.80
2019-05-26T12:41:40.001Z,25.80
2019-05-26T12:44:14.302Z,25.80
2019-05-26T12:46:46.656Z,25.80
2019-05-26T12:49:20.962Z,25.80
2019-05-26T12:51:56.199Z,25.80
2019-05-26T12:54:30.179Z,25.80
2019-05-26T12:57:25.202Z,25.80
2019-05-26T12:59:57.580Z,25.80
2019-05-26T13:02:35.782Z,25.80
2019-05-26T13:05:14.183Z,25.80
2019-05-26T13:07:48.495Z,25.80
2019-05-26T13:10:31.839Z,25.80
2019-05-26T13:13:04.264Z,25.70
2019-05-26T13:16:09.333Z,25.70
2019-05-26T13:18:45.997Z,25.70
2019-05-26T13:21:36.548Z,25.70
2019-05-26T13:24:21.177Z,25.70
2019-05-26T13:26:57.865Z,25.70
2019-05-26T13:29:46.733Z,25.70
2019-05-26T13:32:22.370Z,25.70
2019-05-26T13:35:05.487Z,25.70
2019-05-26T13:37:37.703Z,25.70
2019-05-26T13:43:45.717Z,25.60
2019-05-26T13:46:24.977Z,25.60
2019-05-26T13:49:17.239Z,25.60
2019-05-26T13:51:50.447Z,25.60
2019-05-26T13:54:22.918Z,25.60
2019-05-26T13:56:55.347Z,25.60
2019-05-26T13:59:27.713Z,25.60
2019-05-26T14:02:02.080Z,25.60
2019-05-26T14:04:34.274Z,25.60
2019-05-26T14:07:06.609Z,25.60
2019-05-26T14:09:38.823Z,25.60
2019-05-26T14:12:12.706Z,25.60
2019-05-26T14:14:45.049Z,25.60
2019-05-26T14:17:17.290Z,25.60
2019-05-26T14:19:49.409Z,25.50
2019-05-26T14:22:23.181Z,25.50
2019-05-26T14:24:55.380Z,25.50
2019-05-26T14:27:27.604Z,25.50
2019-05-26T14:29:59.793Z,25.50
2019-05-26T14:32:32.002Z,25.50
2019-05-26T14:35:04.527Z,25.50
2019-05-26T14:37:36.760Z,25.50
2019-05-26T14:40:09.406Z,25.50
2019-05-26T14:42:44.902Z,25.50
2019-05-26T14:45:17.305Z,25.50
2019-05-26T14:47:49.646Z,25.50
2019-05-26T14:50:21.991Z,25.50
2019-05-26T14:52:54.216Z,25.50
2019-05-26T14:55:26.492Z,25.40
2019-05-26T14:58:14.460Z,25.40
2019-05-26T15:00:32.810Z,25.50
2019-05-26T15:03:05.229Z,25.40
2019-05-26T15:05:37.440Z,25.40
2019-05-26T15:08:09.890Z,25.40
2019-05-26T15:10:42.195Z,25.40
2019-05-26T15:13:14.418Z,25.40
2019-05-26T15:15:47.582Z,25.40
2019-05-26T15:18:19.876Z,25.40
2019-05-26T15:20:55.388Z,25.30
2019-05-26T15:23:26.150Z,25.30
2019-05-26T15:25:58.359Z,25.30
2019-05-26T15:28:30.771Z,25.30
2019-05-26T15:31:03.124Z,25.30
2019-05-26T15:33:35.621Z,25.30
2019-05-26T15:36:07.888Z,25.30
2019-05-26T15:38:43.233Z,25.20
2019-05-26T15:41:15.828Z,25.20
2019-05-26T15:43:48.794Z,25.20
2019-05-26T15:46:25.326Z,25.20
2019-05-26T15:48:56.263Z,25.10
2019-05-26T15:51:28.757Z,25.10
2019-05-26T15:54:01.100Z,25.10
2019-05-26T15:56:33.227Z,25.10
2019-05-26T15:59:05.455Z,25.10
2019-05-26T16:01:37.762Z,25.10
2019-05-26T16:04:10.579Z,25.10
2019-05-26T16:06:43.492Z,25.10
2019-05-26T16:09:16.471Z,25.10
2019-05-26T16:11:49.294Z,25.10
2019-05-26T16:14:22.066Z,25.10
2019-05-26T16:16:54.938Z,25.10
2019-05-26T16:19:27.809Z,25.10
2019-05-26T16:22:00.729Z,25.10
2019-05-26T16:24:33.647Z,25.10
2019-05-26T16:27:18.652Z,25.10
2019-05-26T16:29:40.600Z,25.10
2019-05-26T16:32:13.843Z,25.10
2019-05-26T16:34:46.108Z,25.10
2019-05-26T16:37:18.705Z,25.10
2019-05-26T16:39:50.932Z,25.10
2019-05-26T16:42:23.222Z,25.10
2019-05-26T16:44:55.450Z,25.10
2019-05-26T16:47:28.312Z,25.10
2019-05-26T16:50:01.063Z,25.10
2019-05-26T16:52:33.918Z,25.10
2019-05-26T16:55:06.512Z,25.10
2019-05-26T16:57:38.967Z,25.10
2019-05-26T17:00:11.626Z,25.10
2019-05-26T17:02:43.836Z,25.10
2019-05-26T17:05:16.204Z,25.10
2019-05-26T17:07:50.516Z,25.10
2019-05-26T17:10:22.627Z,25.10
2019-05-26T17:12:54.910Z,25.10
2019-05-26T17:15:27.154Z,25.10
2019-05-26T17:17:59.534Z,25.00
2019-05-26T17:20:31.774Z,25.10
2019-05-26T17:23:04.126Z,25.00
2019-05-26T17:25:39.885Z,25.10
2019-05-26T17:28:12.150Z,25.10
2019-05-26T17:30:44.489Z,25.00
2019-05-26T17:33:16.693Z,25.00
2019-05-26T17:35:48.936Z,25.00
2019-05-26T17:38:21.795Z,25.00
2019-05-26T17:40:54.744Z,25.00
2019-05-26T17:43:27.724Z,25.00
2019-05-26T17:46:00.602Z,25.00
2019-05-26T17:48:33.768Z,25.00
2019-05-26T17:51:06.632Z,25.00
2019-05-26T17:53:39.324Z,24.90
2019-05-26T17:56:11.614Z,24.90
2019-05-26T17:58:43.890Z,24.90
2019-05-26T18:01:17.068Z,24.90
2019-05-26T18:04:33.062Z,24.90
2019-05-26T18:13:30.816Z,24.70
2019-05-26T18:16:21.728Z,24.70
2019-05-26T18:19:08.592Z,24.80
2019-05-26T18:21:50.269Z,24.80
2019-05-26T18:40:13.198Z,24.70
2019-05-26T18:42:50.158Z,24.70
2019-05-26T18:45:22.682Z,24.60
2019-05-26T18:48:02.972Z,24.60
2019-05-26T18:50:30.763Z,24.60
2019-05-26T18:53:03.530Z,24.40
2019-05-26T18:55:36.176Z,24.50
2019-05-26T18:58:08.866Z,24.40
2019-05-26T19:00:41.421Z,24.40
2019-05-26T19:03:14.141Z,24.40
2019-05-26T19:05:46.805Z,24.40
2019-05-26T19:08:19.373Z,24.40
2019-05-26T19:10:51.991Z,24.30
2019-05-26T19:13:24.655Z,24.30
2019-05-26T19:15:58.833Z,24.30
2019-05-26T19:18:31.806Z,24.30
2019-05-26T19:21:04.382Z,24.20
2019-05-26T19:23:37.007Z,24.20
2019-05-26T19:26:09.519Z,24.20
2019-05-26T19:28:42.211Z,24.10
2019-05-26T19:31:14.789Z,24.10
2019-05-26T19:33:47.493Z,24.10
2019-05-26T19:36:20.101Z,24.00
2019-05-26T19:38:52.805Z,24.00
2019-05-26T19:41:25.418Z,24.00
2019-05-26T19:43:58.419Z,23.90
2019-05-26T19:46:31.193Z,23.90
2019-05-26T19:49:03.857Z,23.90
2019-05-26T19:51:36.508Z,23.80
2019-05-26T19:54:09.251Z,23.80
2019-05-26T19:56:42.029Z,23.70
2019-05-26T19:59:14.837Z,23.70
2019-05-26T20:01:47.462Z,23.70
2019-05-26T20:04:20.137Z,23.60
2019-05-26T20:06:52.822Z,23.60
2019-05-26T20:09:25.769Z,23.50
2019-05-26T20:11:58.282Z,23.50
2019-05-26T20:14:30.917Z,23.40
2019-05-26T20:17:03.901Z,23.40
2019-05-26T20:19:41.605Z,23.30
2019-05-26T20:22:26.500Z,23.30
2019-05-26T20:25:08.158Z,23.30
2019-05-26T20:27:45.554Z,23.20
2019-05-26T20:30:23.085Z,23.20
2019-05-26T20:32:58.963Z,23.20
2019-05-26T20:35:38.208Z,23.10
2019-05-26T20:38:13.530Z,23.10
2019-05-26T20:41:01.408Z,23.00
2019-05-26T20:44:03.144Z,23.00
2019-05-26T20:46:40.490Z,23.00
2019-05-26T20:49:23.116Z,22.90
2019-05-26T20:52:48.992Z,22.90
2019-05-26T20:55:40.524Z,22.80
2019-05-26T20:58:32.339Z,22.80
2019-05-26T21:01:28.431Z,22.80
2019-05-26T21:05:19.648Z,22.70
2019-05-26T21:08:08.062Z,22.70
2019-05-26T21:10:47.147Z,22.60
2019-05-26T21:13:34.853Z,22.60
2019-05-26T21:16:14.571Z,22.60
2019-05-26T21:19:02.544Z,22.50
2019-05-26T21:21:47.358Z,22.50
2019-05-26T21:24:26.989Z,22.40
2019-05-26T21:27:08.798Z,22.40
2019-05-26T21:33:54.835Z,22.30
2019-05-26T21:36:59.491Z,22.30
2019-05-26T21:40:26.008Z,22.20
2019-05-26T21:43:14.749Z,22.20
2019-05-26T21:45:54.632Z,22.20
2019-05-26T21:53:43.642Z,22.10
2019-05-26T21:56:47.512Z,22.00
2019-05-26T21:59:55.798Z,22.00
2019-05-26T22:03:04.593Z,21.90
2019-05-26T22:05:51.592Z,21.90
2019-05-26T22:08:50.621Z,21.90
2019-05-26T22:11:32.814Z,21.80
2019-05-26T22:14:19.527Z,21.80
2019-05-26T22:17:06.948Z,21.70
2019-05-26T22:20:03.341Z,21.70
2019-05-26T22:22:55.243Z,21.70
2019-05-26T22:26:11.634Z,21.60
2019-05-26T22:28:48.863Z,21.60
2019-05-26T22:31:46.376Z,21.60
2019-05-26T22:34:36.473Z,21.50
2019-05-26T22:37:50.501Z,21.50
2019-05-26T22:41:10.156Z,21.50
2019-05-26T22:46:50.224Z,21.40
2019-05-26T22:49:31.941Z,21.40
2019-05-26T22:53:06.985Z,21.30
2019-05-26T22:56:00.825Z,21.30
2019-05-26T22:58:47.956Z,21.30
2019-05-26T23:01:40.138Z,21.20
2019-05-26T23:04:21.421Z,21.20
2019-05-26T23:13:19.717Z,21.10
2019-05-26T23:16:27.052Z,21.10
2019-05-26T23:19:19.296Z,21.10
2019-05-26T23:21:52.546Z,21.00
2019-05-26T23:24:31.169Z,21.00
2019-05-26T23:27:13.930Z,20.90
2019-05-26T23:29:51.393Z,20.90
2019-05-26T23:32:28.082Z,20.90
2019-05-26T23:35:06.607Z,20.90
2019-05-26T23:37:48.080Z,20.90
2019-05-26T23:40:27.845Z,20.80
2019-05-26T23:43:04.753Z,20.80
2019-05-26T23:45:45.151Z,20.80
2019-05-26T23:48:29.640Z,20.80
2019-05-26T23:51:08.956Z,20.80
2019-05-26T23:53:48.709Z,20.70
2019-05-26T23:56:25.066Z,20.70
2019-05-26T23:59:02.005Z,20.70
